sensor_id;sensor_type;location;lat;lon;timestamp;pressure;altitude;pressure_sealevel;temperature;humidity
79006;BME280;69202;45.498;-73.582;2023-04-26T00:00:46;101622.25;;;13.31;42.25
79006;BME280;69202;45.498;-73.582;2023-04-26T00:03:12;101564.16;;;12.89;41.65
79006;BME280;69202;45.498;-73.582;2023-04-26T00:05:39;101572.94;;;12.91;40.94
79006;BME280;69202;45.498;-73.582;2023-04-26T00:08:05;101551.44;;;12.68;40.79
79006;BME280;69202;45.498;-73.582;2023-04-26T00:10:31;101600.75;;;12.93;41.43
79006;BME280;69202;45.498;-73.582;2023-04-26T00:12:57;101585.47;;;12.70;41.41
79006;BME280;69202;45.498;-73.582;2023-04-26T00:15:23;101595.81;;;12.82;40.83
79006;BME280;69202;45.498;-73.582;2023-04-26T00:17:49;101601.31;;;12.88;41.00
79006;BME280;69202;45.498;-73.582;2023-04-26T00:20:15;101624.69;;;13.04;41.49
79006;BME280;69202;45.498;-73.582;2023-04-26T00:22:41;101590.13;;;12.77;40.85
79006;BME280;69202;45.498;-73.582;2023-04-26T00:25:07;101563.50;;;12.65;39.23
79006;BME280;69202;45.498;-73.582;2023-04-26T00:27:34;101547.84;;;12.46;37.29
79006;BME280;69202;45.498;-73.582;2023-04-26T00:30:00;101616.22;;;12.92;36.50
79006;BME280;69202;45.498;-73.582;2023-04-26T00:32:25;101615.53;;;12.90;35.64
79006;BME280;69202;45.498;-73.582;2023-04-26T00:34:51;101591.94;;;12.69;35.19
79006;BME280;69202;45.498;-73.582;2023-04-26T00:37:19;101568.59;;;12.54;35.30
79006;BME280;69202;45.498;-73.582;2023-04-26T00:39:45;101616.53;;;12.83;35.55
79006;BME280;69202;45.498;-73.582;2023-04-26T00:42:11;101634.34;;;12.92;34.94
79006;BME280;69202;45.498;-73.582;2023-04-26T00:44:37;101604.53;;;12.77;35.23
79006;BME280;69202;45.498;-73.582;2023-04-26T00:47:06;101621.13;;;12.82;35.36
79006;BME280;69202;45.498;-73.582;2023-04-26T00:49:34;101606.41;;;12.77;35.18
79006;BME280;69202;45.498;-73.582;2023-04-26T00:52:00;101605.28;;;12.86;35.26
79006;BME280;69202;45.498;-73.582;2023-04-26T00:54:26;101632.00;;;13.04;34.57
79006;BME280;69202;45.498;-73.582;2023-04-26T00:56:52;101647.38;;;13.18;34.99
79006;BME280;69202;45.498;-73.582;2023-04-26T00:59:19;101558.53;;;12.69;35.06
79006;BME280;69202;45.498;-73.582;2023-04-26T01:01:46;101633.28;;;13.08;36.65
79006;BME280;69202;45.498;-73.582;2023-04-26T01:04:15;101643.25;;;13.22;39.25
79006;BME280;69202;45.498;-73.582;2023-04-26T01:06:42;101587.75;;;12.88;40.74
79006;BME280;69202;45.498;-73.582;2023-04-26T01:09:08;101644.75;;;13.24;41.04
79006;BME280;69202;45.498;-73.582;2023-04-26T01:11:36;101643.09;;;13.23;41.24
79006;BME280;69202;45.498;-73.582;2023-04-26T01:14:04;101652.06;;;13.24;42.14
79006;BME280;69202;45.498;-73.582;2023-04-26T01:16:31;101634.19;;;13.15;43.02
79006;BME280;69202;45.498;-73.582;2023-04-26T01:19:06;101579.72;;;12.80;43.67
79006;BME280;69202;45.498;-73.582;2023-04-26T01:21:32;101585.16;;;12.80;43.75
79006;BME280;69202;45.498;-73.582;2023-04-26T01:23:58;101578.13;;;12.64;43.85
79006;BME280;69202;45.498;-73.582;2023-04-26T01:26:25;101628.28;;;12.90;44.09
79006;BME280;69202;45.498;-73.582;2023-04-26T01:28:51;101653.44;;;12.98;44.46
79006;BME280;69202;45.498;-73.582;2023-04-26T01:31:17;101634.41;;;12.77;43.88
79006;BME280;69202;45.498;-73.582;2023-04-26T01:33:43;101536.31;;;12.23;44.18
79006;BME280;69202;45.498;-73.582;2023-04-26T01:36:09;101602.00;;;12.54;44.01
79006;BME280;69202;45.498;-73.582;2023-04-26T01:38:35;101635.63;;;12.75;43.84
79006;BME280;69202;45.498;-73.582;2023-04-26T01:41:02;101676.56;;;12.94;44.24
79006;BME280;69202;45.498;-73.582;2023-04-26T01:43:27;101594.81;;;12.47;43.93
79006;BME280;69202;45.498;-73.582;2023-04-26T01:45:53;101667.25;;;12.82;44.09
79006;BME280;69202;45.498;-73.582;2023-04-26T01:48:19;101648.06;;;12.69;44.53
79006;BME280;69202;45.498;-73.582;2023-04-26T01:50:45;101642.00;;;12.67;44.59
79006;BME280;69202;45.498;-73.582;2023-04-26T01:53:12;101672.47;;;12.84;44.89
79006;BME280;69202;45.498;-73.582;2023-04-26T01:55:38;101592.69;;;12.27;44.40
79006;BME280;69202;45.498;-73.582;2023-04-26T01:58:04;101650.34;;;12.65;44.72
79006;BME280;69202;45.498;-73.582;2023-04-26T02:00:30;101636.91;;;12.42;45.07
79006;BME280;69202;45.498;-73.582;2023-04-26T02:02:56;101633.66;;;12.32;45.65
79006;BME280;69202;45.498;-73.582;2023-04-26T02:05:22;101628.41;;;12.31;45.58
79006;BME280;69202;45.498;-73.582;2023-04-26T02:07:49;101686.34;;;12.59;44.66
79006;BME280;69202;45.498;-73.582;2023-04-26T02:10:16;101690.03;;;12.52;45.27
79006;BME280;69202;45.498;-73.582;2023-04-26T02:12:42;101652.97;;;12.29;45.63
79006;BME280;69202;45.498;-73.582;2023-04-26T02:15:08;101686.09;;;12.54;45.09
79006;BME280;69202;45.498;-73.582;2023-04-26T02:17:34;101691.31;;;12.56;44.85
79006;BME280;69202;45.498;-73.582;2023-04-26T02:20:03;101699.91;;;12.59;44.85
79006;BME280;69202;45.498;-73.582;2023-04-26T02:22:29;101691.31;;;12.56;44.92
79006;BME280;69202;45.498;-73.582;2023-04-26T02:24:55;101700.50;;;12.55;45.58
79006;BME280;69202;45.498;-73.582;2023-04-26T02:27:21;101672.53;;;12.39;45.39
79006;BME280;69202;45.498;-73.582;2023-04-26T02:29:48;101646.56;;;12.01;45.76
79006;BME280;69202;45.498;-73.582;2023-04-26T02:32:14;101606.47;;;11.59;45.58
79006;BME280;69202;45.498;-73.582;2023-04-26T02:34:40;101560.84;;;11.33;45.94
79006;BME280;69202;45.498;-73.582;2023-04-26T02:37:07;101713.59;;;12.22;46.01
79006;BME280;69202;45.498;-73.582;2023-04-26T02:39:33;101635.19;;;11.68;46.54
79006;BME280;69202;45.498;-73.582;2023-04-26T02:41:59;101581.06;;;11.22;45.65
79006;BME280;69202;45.498;-73.582;2023-04-26T02:44:28;101604.00;;;11.11;47.42
79006;BME280;69202;45.498;-73.582;2023-04-26T02:46:55;101604.19;;;11.10;47.24
79006;BME280;69202;45.498;-73.582;2023-04-26T02:49:23;101667.78;;;11.37;47.12
79006;BME280;69202;45.498;-73.582;2023-04-26T02:51:49;101616.69;;;11.11;47.22
79006;BME280;69202;45.498;-73.582;2023-04-26T02:54:15;101711.78;;;11.76;47.28
79006;BME280;69202;45.498;-73.582;2023-04-26T02:56:41;101707.38;;;11.75;47.46
79006;BME280;69202;45.498;-73.582;2023-04-26T02:59:07;101694.22;;;11.72;47.27
79006;BME280;69202;45.498;-73.582;2023-04-26T03:01:33;101696.88;;;11.80;47.20
79006;BME280;69202;45.498;-73.582;2023-04-26T03:03:59;101717.28;;;11.91;46.84
79006;BME280;69202;45.498;-73.582;2023-04-26T03:06:25;101691.38;;;11.66;46.61
79006;BME280;69202;45.498;-73.582;2023-04-26T03:08:53;101706.88;;;11.57;46.63
79006;BME280;69202;45.498;-73.582;2023-04-26T03:11:19;101719.41;;;11.58;47.45
79006;BME280;69202;45.498;-73.582;2023-04-26T03:13:45;101728.72;;;11.55;47.78
79006;BME280;69202;45.498;-73.582;2023-04-26T03:16:11;101614.88;;;10.80;47.98
79006;BME280;69202;45.498;-73.582;2023-04-26T03:18:37;101656.50;;;11.25;48.27
79006;BME280;69202;45.498;-73.582;2023-04-26T03:21:03;101719.22;;;11.60;47.99
79006;BME280;69202;45.498;-73.582;2023-04-26T03:23:29;101664.56;;;11.33;48.49
79006;BME280;69202;45.498;-73.582;2023-04-26T03:25:55;101698.81;;;11.49;47.94
79006;BME280;69202;45.498;-73.582;2023-04-26T03:28:21;101729.31;;;11.66;47.98
79006;BME280;69202;45.498;-73.582;2023-04-26T03:30:47;101683.84;;;11.38;48.32
79006;BME280;69202;45.498;-73.582;2023-04-26T03:33:14;101704.47;;;11.39;48.44
79006;BME280;69202;45.498;-73.582;2023-04-26T03:35:43;101690.00;;;11.24;48.83
79006;BME280;69202;45.498;-73.582;2023-04-26T03:38:09;101692.72;;;11.24;48.98
79006;BME280;69202;45.498;-73.582;2023-04-26T03:40:35;101736.06;;;11.47;48.58
79006;BME280;69202;45.498;-73.582;2023-04-26T03:43:01;101724.97;;;11.34;48.77
79006;BME280;69202;45.498;-73.582;2023-04-26T03:45:27;101714.88;;;11.27;49.19
79006;BME280;69202;45.498;-73.582;2023-04-26T03:47:53;101672.44;;;10.97;49.04
79006;BME280;69202;45.498;-73.582;2023-04-26T03:50:19;101751.72;;;11.37;48.89
79006;BME280;69202;45.498;-73.582;2023-04-26T03:52:45;101677.91;;;10.89;50.06
79006;BME280;69202;45.498;-73.582;2023-04-26T03:55:11;101706.91;;;11.03;49.68
79006;BME280;69202;45.498;-73.582;2023-04-26T03:57:37;101725.28;;;11.16;49.39
79006;BME280;69202;45.498;-73.582;2023-04-26T04:00:04;101731.03;;;11.13;49.86
79006;BME280;69202;45.498;-73.582;2023-04-26T04:02:36;101744.72;;;11.19;49.54
79006;BME280;69202;45.498;-73.582;2023-04-26T04:05:02;101681.66;;;10.80;50.28
79006;BME280;69202;45.498;-73.582;2023-04-26T04:07:28;101733.47;;;10.99;50.04
79006;BME280;69202;45.498;-73.582;2023-04-26T04:09:54;101728.25;;;10.98;50.68
79006;BME280;69202;45.498;-73.582;2023-04-26T04:12:19;101746.78;;;11.09;50.85
79006;BME280;69202;45.498;-73.582;2023-04-26T04:14:47;101716.16;;;10.86;50.18
79006;BME280;69202;45.498;-73.582;2023-04-26T04:17:13;101713.63;;;10.84;51.12
79006;BME280;69202;45.498;-73.582;2023-04-26T04:19:39;101744.13;;;11.01;50.99
79006;BME280;69202;45.498;-73.582;2023-04-26T04:22:05;101733.22;;;10.86;50.75
79006;BME280;69202;45.498;-73.582;2023-04-26T04:24:31;101684.13;;;10.58;51.22
79006;BME280;69202;45.498;-73.582;2023-04-26T04:26:57;101741.16;;;10.88;51.36
79006;BME280;69202;45.498;-73.582;2023-04-26T04:29:24;101689.53;;;10.58;51.54
79006;BME280;69202;45.498;-73.582;2023-04-26T04:31:49;101684.69;;;10.54;51.45
79006;BME280;69202;45.498;-73.582;2023-04-26T04:34:15;101753.44;;;10.98;51.15
79006;BME280;69202;45.498;-73.582;2023-04-26T04:36:41;101724.47;;;10.76;51.56
79006;BME280;69202;45.498;-73.582;2023-04-26T04:39:07;101682.28;;;10.59;51.13
79006;BME280;69202;45.498;-73.582;2023-04-26T04:41:38;101759.38;;;10.94;51.53
79006;BME280;69202;45.498;-73.582;2023-04-26T04:44:05;101623.94;;;10.17;51.50
79006;BME280;69202;45.498;-73.582;2023-04-26T04:46:31;101691.22;;;10.59;52.29
79006;BME280;69202;45.498;-73.582;2023-04-26T04:48:56;101731.53;;;10.85;51.46
79006;BME280;69202;45.498;-73.582;2023-04-26T04:51:22;101708.81;;;10.63;52.33
79006;BME280;69202;45.498;-73.582;2023-04-26T04:53:48;101748.59;;;10.86;52.24
79006;BME280;69202;45.498;-73.582;2023-04-26T04:56:14;101750.28;;;10.87;51.83
79006;BME280;69202;45.498;-73.582;2023-04-26T04:58:42;101744.88;;;10.87;51.86
79006;BME280;69202;45.498;-73.582;2023-04-26T05:01:08;101748.59;;;10.86;51.98
79006;BME280;69202;45.498;-73.582;2023-04-26T05:03:34;101749.63;;;10.85;52.25
79006;BME280;69202;45.498;-73.582;2023-04-26T05:06:00;101756.22;;;10.82;52.57
79006;BME280;69202;45.498;-73.582;2023-04-26T05:08:27;101694.31;;;10.48;51.90
79006;BME280;69202;45.498;-73.582;2023-04-26T05:10:53;101682.69;;;10.39;52.23
79006;BME280;69202;45.498;-73.582;2023-04-26T05:13:20;101742.38;;;10.77;52.97
79006;BME280;69202;45.498;-73.582;2023-04-26T05:15:46;101678.19;;;10.32;52.09
79006;BME280;69202;45.498;-73.582;2023-04-26T05:18:12;101714.06;;;10.57;53.03
79006;BME280;69202;45.498;-73.582;2023-04-26T05:20:38;101713.59;;;10.53;52.61
79006;BME280;69202;45.498;-73.582;2023-04-26T05:23:04;101685.75;;;10.36;52.83
79006;BME280;69202;45.498;-73.582;2023-04-26T05:25:31;101711.19;;;10.50;53.00
79006;BME280;69202;45.498;-73.582;2023-04-26T05:28:00;101703.81;;;10.44;52.78
79006;BME280;69202;45.498;-73.582;2023-04-26T05:30:27;101730.25;;;10.65;52.60
79006;BME280;69202;45.498;-73.582;2023-04-26T05:32:56;101704.84;;;10.43;52.76
79006;BME280;69202;45.498;-73.582;2023-04-26T05:35:26;101668.38;;;10.15;52.72
79006;BME280;69202;45.498;-73.582;2023-04-26T05:37:52;101752.94;;;10.56;53.47
79006;BME280;69202;45.498;-73.582;2023-04-26T05:40:18;101718.66;;;10.48;53.43
79006;BME280;69202;45.498;-73.582;2023-04-26T05:42:44;101698.59;;;10.34;53.01
79006;BME280;69202;45.498;-73.582;2023-04-26T05:45:10;101599.09;;;9.66;52.47
79006;BME280;69202;45.498;-73.582;2023-04-26T05:47:36;101673.78;;;10.15;52.93
79006;BME280;69202;45.498;-73.582;2023-04-26T05:50:05;101731.97;;;10.58;52.44
79006;BME280;69202;45.498;-73.582;2023-04-26T05:52:31;101677.84;;;10.27;52.29
79006;BME280;69202;45.498;-73.582;2023-04-26T05:54:59;101699.09;;;10.38;52.07
79006;BME280;69202;45.498;-73.582;2023-04-26T05:57:29;101723.84;;;10.58;51.43
79006;BME280;69202;45.498;-73.582;2023-04-26T05:59:55;101654.53;;;10.09;51.16
79006;BME280;69202;45.498;-73.582;2023-04-26T06:02:21;101633.47;;;9.97;50.74
79006;BME280;69202;45.498;-73.582;2023-04-26T06:04:47;101685.09;;;10.34;50.69
79006;BME280;69202;45.498;-73.582;2023-04-26T06:07:12;101742.78;;;10.66;50.89
79006;BME280;69202;45.498;-73.582;2023-04-26T06:09:38;101754.59;;;10.65;50.31
79006;BME280;69202;45.498;-73.582;2023-04-26T06:12:05;101742.25;;;10.62;50.46
79006;BME280;69202;45.498;-73.582;2023-04-26T06:14:31;101625.38;;;9.89;49.52
79006;BME280;69202;45.498;-73.582;2023-04-26T06:16:57;101750.06;;;10.57;49.91
79006;BME280;69202;45.498;-73.582;2023-04-26T06:19:23;101737.88;;;10.61;49.26
79006;BME280;69202;45.498;-73.582;2023-04-26T06:21:49;101681.53;;;10.18;48.95
79006;BME280;69202;45.498;-73.582;2023-04-26T06:24:16;101617.69;;;9.61;49.50
79006;BME280;69202;45.498;-73.582;2023-04-26T06:26:42;101657.66;;;9.82;48.85
79006;BME280;69202;45.498;-73.582;2023-04-26T06:29:08;101696.63;;;10.04;48.66
79006;BME280;69202;45.498;-73.582;2023-04-26T06:31:34;101731.06;;;10.26;49.47
79006;BME280;69202;45.498;-73.582;2023-04-26T06:34:00;101689.88;;;9.92;48.94
79006;BME280;69202;45.498;-73.582;2023-04-26T06:36:27;101677.72;;;9.79;49.04
79006;BME280;69202;45.498;-73.582;2023-04-26T06:38:53;101630.69;;;9.41;49.56
79006;BME280;69202;45.498;-73.582;2023-04-26T06:41:20;101681.97;;;9.82;48.53
79006;BME280;69202;45.498;-73.582;2023-04-26T06:43:47;101635.25;;;9.49;49.26
79006;BME280;69202;45.498;-73.582;2023-04-26T06:46:14;101709.81;;;9.91;49.63
79006;BME280;69202;45.498;-73.582;2023-04-26T06:48:40;101694.44;;;9.83;49.69
79006;BME280;69202;45.498;-73.582;2023-04-26T06:51:06;101609.94;;;9.34;49.17
79006;BME280;69202;45.498;-73.582;2023-04-26T06:53:34;101707.59;;;10.02;48.68
79006;BME280;69202;45.498;-73.582;2023-04-26T06:56:00;101689.53;;;9.95;48.49
79006;BME280;69202;45.498;-73.582;2023-04-26T06:58:26;101672.19;;;9.81;48.32
79006;BME280;69202;45.498;-73.582;2023-04-26T07:00:52;101750.63;;;10.28;48.63
79006;BME280;69202;45.498;-73.582;2023-04-26T07:03:18;101737.63;;;10.16;48.70
79006;BME280;69202;45.498;-73.582;2023-04-26T07:05:44;101722.28;;;10.00;49.22
79006;BME280;69202;45.498;-73.582;2023-04-26T07:08:10;101733.91;;;10.00;49.17
79006;BME280;69202;45.498;-73.582;2023-04-26T07:10:38;101738.66;;;9.98;50.10
79006;BME280;69202;45.498;-73.582;2023-04-26T07:13:04;101745.78;;;9.91;49.75
79006;BME280;69202;45.498;-73.582;2023-04-26T07:15:30;101657.00;;;9.31;49.94
79006;BME280;69202;45.498;-73.582;2023-04-26T07:17:57;101675.75;;;9.41;49.94
79006;BME280;69202;45.498;-73.582;2023-04-26T07:20:23;101738.66;;;9.66;50.48
79006;BME280;69202;45.498;-73.582;2023-04-26T07:22:49;101694.81;;;9.39;50.64
79006;BME280;69202;45.498;-73.582;2023-04-26T07:25:16;101701.72;;;9.42;50.38
79006;BME280;69202;45.498;-73.582;2023-04-26T07:27:42;101722.63;;;9.48;50.05
79006;BME280;69202;45.498;-73.582;2023-04-26T07:30:08;101715.69;;;9.37;50.10
79006;BME280;69202;45.498;-73.582;2023-04-26T07:32:35;101740.19;;;9.52;50.34
79006;BME280;69202;45.498;-73.582;2023-04-26T07:35:04;101612.59;;;8.68;50.33
79006;BME280;69202;45.498;-73.582;2023-04-26T07:37:31;101740.84;;;9.46;49.83
79006;BME280;69202;45.498;-73.582;2023-04-26T07:39:58;101723.28;;;9.34;49.85
79006;BME280;69202;45.498;-73.582;2023-04-26T07:42:24;101732.88;;;9.20;51.08
79006;BME280;69202;45.498;-73.582;2023-04-26T07:44:50;101745.91;;;9.33;51.17
79006;BME280;69202;45.498;-73.582;2023-04-26T07:47:16;101716.00;;;9.10;50.73
79006;BME280;69202;45.498;-73.582;2023-04-26T07:49:42;101677.19;;;8.94;51.01
79006;BME280;69202;45.498;-73.582;2023-04-26T07:52:08;101739.16;;;9.29;50.79
79006;BME280;69202;45.498;-73.582;2023-04-26T07:54:34;101738.13;;;9.30;51.04
79006;BME280;69202;45.498;-73.582;2023-04-26T07:57:00;101720.41;;;9.19;50.71
79006;BME280;69202;45.498;-73.582;2023-04-26T07:59:26;101657.59;;;8.76;50.92
79006;BME280;69202;45.498;-73.582;2023-04-26T08:01:52;101735.25;;;9.23;51.25
79006;BME280;69202;45.498;-73.582;2023-04-26T08:04:30;101750.94;;;9.36;50.57
79006;BME280;69202;45.498;-73.582;2023-04-26T08:06:59;101756.50;;;9.26;50.91
79006;BME280;69202;45.498;-73.582;2023-04-26T08:09:27;101752.44;;;9.22;51.30
79006;BME280;69202;45.498;-73.582;2023-04-26T08:11:54;101756.16;;;9.21;51.61
79006;BME280;69202;45.498;-73.582;2023-04-26T08:14:20;101716.44;;;8.89;51.46
79006;BME280;69202;45.498;-73.582;2023-04-26T08:16:45;101746.69;;;9.17;51.47
79006;BME280;69202;45.498;-73.582;2023-04-26T08:19:11;101746.88;;;9.07;51.19
79006;BME280;69202;45.498;-73.582;2023-04-26T08:21:37;101691.94;;;8.74;51.64
79006;BME280;69202;45.498;-73.582;2023-04-26T08:24:03;101658.59;;;8.67;51.55
79006;BME280;69202;45.498;-73.582;2023-04-26T08:26:29;101653.34;;;8.65;51.36
79006;BME280;69202;45.498;-73.582;2023-04-26T08:28:55;101734.38;;;9.14;50.39
79006;BME280;69202;45.498;-73.582;2023-04-26T08:31:22;101720.88;;;9.14;50.41
79006;BME280;69202;45.498;-73.582;2023-04-26T08:33:48;101711.78;;;9.15;50.48
79006;BME280;69202;45.498;-73.582;2023-04-26T08:36:13;101743.38;;;9.39;51.01
79006;BME280;69202;45.498;-73.582;2023-04-26T08:38:39;101655.75;;;8.85;51.22
79006;BME280;69202;45.498;-73.582;2023-04-26T08:41:08;101739.66;;;9.32;51.50
79006;BME280;69202;45.498;-73.582;2023-04-26T08:43:38;101674.16;;;8.89;51.90
79006;BME280;69202;45.498;-73.582;2023-04-26T08:46:06;101749.78;;;9.46;52.21
79006;BME280;69202;45.498;-73.582;2023-04-26T08:48:36;101756.03;;;9.47;51.84
79006;BME280;69202;45.498;-73.582;2023-04-26T08:51:02;101741.69;;;9.38;51.77
79006;BME280;69202;45.498;-73.582;2023-04-26T08:53:30;101748.91;;;9.38;51.80
79006;BME280;69202;45.498;-73.582;2023-04-26T08:55:59;101741.16;;;9.35;51.74
79006;BME280;69202;45.498;-73.582;2023-04-26T08:58:27;101774.41;;;9.43;50.66
79006;BME280;69202;45.498;-73.582;2023-04-26T09:00:54;101706.03;;;9.02;51.40
79006;BME280;69202;45.498;-73.582;2023-04-26T09:03:22;101773.56;;;9.35;51.31
79006;BME280;69202;45.498;-73.582;2023-04-26T09:05:48;101794.13;;;9.28;52.90
79006;BME280;69202;45.498;-73.582;2023-04-26T09:08:18;101746.16;;;9.05;53.59
79006;BME280;69202;45.498;-73.582;2023-04-26T09:10:44;101780.78;;;9.18;54.58
79006;BME280;69202;45.498;-73.582;2023-04-26T09:13:10;101742.25;;;8.91;55.13
79006;BME280;69202;45.498;-73.582;2023-04-26T09:15:37;101776.53;;;9.15;53.31
79006;BME280;69202;45.498;-73.582;2023-04-26T09:18:16;101781.09;;;9.15;52.28
79006;BME280;69202;45.498;-73.582;2023-04-26T09:20:44;101738.75;;;8.99;51.99
79006;BME280;69202;45.498;-73.582;2023-04-26T09:23:10;101767.22;;;9.02;51.40
79006;BME280;69202;45.498;-73.582;2023-04-26T09:25:36;101787.53;;;9.22;50.59
79006;BME280;69202;45.498;-73.582;2023-04-26T09:28:03;101781.63;;;9.18;50.22
79006;BME280;69202;45.498;-73.582;2023-04-26T09:30:43;101655.03;;;8.32;49.83
79006;BME280;69202;45.498;-73.582;2023-04-26T09:33:09;101736.47;;;8.78;50.29
79006;BME280;69202;45.498;-73.582;2023-04-26T09:35:39;101756.94;;;8.97;49.80
79006;BME280;69202;45.498;-73.582;2023-04-26T09:38:07;101792.06;;;9.13;50.27
79006;BME280;69202;45.498;-73.582;2023-04-26T09:40:35;101789.84;;;9.09;50.44
79006;BME280;69202;45.498;-73.582;2023-04-26T09:43:03;101770.25;;;8.99;50.75
79006;BME280;69202;45.498;-73.582;2023-04-26T09:45:31;101750.13;;;8.77;50.92
79006;BME280;69202;45.498;-73.582;2023-04-26T09:48:26;101791.50;;;9.02;50.99
79006;BME280;69202;45.498;-73.582;2023-04-26T09:53:26;101790.47;;;8.94;51.51
79006;BME280;69202;45.498;-73.582;2023-04-26T09:55:53;101740.09;;;8.61;51.34
79006;BME280;69202;45.498;-73.582;2023-04-26T09:58:19;101706.47;;;8.39;51.45
79006;BME280;69202;45.498;-73.582;2023-04-26T10:00:51;101762.22;;;8.73;51.42
79006;BME280;69202;45.498;-73.582;2023-04-26T10:03:21;101722.63;;;8.39;51.57
79006;BME280;69202;45.498;-73.582;2023-04-26T10:05:48;101804.22;;;8.83;51.01
79006;BME280;69202;45.498;-73.582;2023-04-26T10:08:14;101756.03;;;8.46;51.32
79006;BME280;69202;45.498;-73.582;2023-04-26T10:10:41;101796.25;;;8.74;51.02
79006;BME280;69202;45.498;-73.582;2023-04-26T10:13:08;101730.81;;;8.29;51.08
79006;BME280;69202;45.498;-73.582;2023-04-26T10:15:35;101734.00;;;8.33;50.87
79006;BME280;69202;45.498;-73.582;2023-04-26T10:18:01;101768.56;;;8.55;50.54
79006;BME280;69202;45.498;-73.582;2023-04-26T10:20:28;101808.16;;;8.89;50.23
79006;BME280;69202;45.498;-73.582;2023-04-26T10:22:56;101825.19;;;8.89;50.22
79006;BME280;69202;45.498;-73.582;2023-04-26T10:25:39;101774.97;;;8.62;50.48
79006;BME280;69202;45.498;-73.582;2023-04-26T10:28:06;101830.41;;;8.91;50.40
79006;BME280;69202;45.498;-73.582;2023-04-26T10:30:32;101801.66;;;8.74;50.22
79006;BME280;69202;45.498;-73.582;2023-04-26T10:33:18;101831.41;;;8.90;49.80
79006;BME280;69202;45.498;-73.582;2023-04-26T10:36:17;101792.38;;;8.68;49.10
79006;BME280;69202;45.498;-73.582;2023-04-26T10:41:42;101827.53;;;8.92;48.62
79006;BME280;69202;45.498;-73.582;2023-04-26T10:44:39;101827.38;;;8.94;48.64
79006;BME280;69202;45.498;-73.582;2023-04-26T10:47:20;101794.75;;;8.71;48.59
79006;BME280;69202;45.498;-73.582;2023-04-26T10:49:46;101807.22;;;8.72;48.41
79006;BME280;69202;45.498;-73.582;2023-04-26T10:52:18;101757.66;;;8.39;48.49
79006;BME280;69202;45.498;-73.582;2023-04-26T10:54:49;101744.38;;;8.37;48.02
79006;BME280;69202;45.498;-73.582;2023-04-26T10:57:15;101775.34;;;8.67;47.44
79006;BME280;69202;45.498;-73.582;2023-04-26T11:05:37;101835.72;;;9.09;46.98
79006;BME280;69202;45.498;-73.582;2023-04-26T11:08:27;101852.63;;;9.19;46.95
79006;BME280;69202;45.498;-73.582;2023-04-26T11:11:05;101834.41;;;9.21;46.75
79006;BME280;69202;45.498;-73.582;2023-04-26T11:13:41;101844.56;;;9.35;47.17
79006;BME280;69202;45.498;-73.582;2023-04-26T11:16:12;101848.47;;;9.41;47.58
79006;BME280;69202;45.498;-73.582;2023-04-26T11:18:43;101857.25;;;9.43;47.83
79006;BME280;69202;45.498;-73.582;2023-04-26T11:21:09;101804.03;;;9.11;48.28
79006;BME280;69202;45.498;-73.582;2023-04-26T11:23:37;101805.06;;;9.18;48.53
79006;BME280;69202;45.498;-73.582;2023-04-26T11:26:05;101758.59;;;8.90;49.52
79006;BME280;69202;45.498;-73.582;2023-04-26T11:28:34;101757.16;;;8.70;50.45
79006;BME280;69202;45.498;-73.582;2023-04-26T11:31:02;101856.03;;;9.29;50.82
79006;BME280;69202;45.498;-73.582;2023-04-26T11:33:29;101844.63;;;9.01;51.77
79006;BME280;69202;45.498;-73.582;2023-04-26T11:35:56;101864.44;;;9.26;51.23
79006;BME280;69202;45.498;-73.582;2023-04-26T11:38:23;101843.53;;;9.20;51.80
79006;BME280;69202;45.498;-73.582;2023-04-26T11:41:00;101862.63;;;9.35;51.95
79006;BME280;69202;45.498;-73.582;2023-04-26T11:43:37;101836.59;;;9.25;51.91
79006;BME280;69202;45.498;-73.582;2023-04-26T11:46:05;101844.28;;;9.46;50.56
79006;BME280;69202;45.498;-73.582;2023-04-26T11:48:33;101852.41;;;9.54;49.32
79006;BME280;69202;45.498;-73.582;2023-04-26T11:51:02;101864.94;;;9.72;47.55
79006;BME280;69202;45.498;-73.582;2023-04-26T11:53:39;101861.56;;;9.78;46.44
79006;BME280;69202;45.498;-73.582;2023-04-26T11:56:14;101857.34;;;9.83;46.60
79006;BME280;69202;45.498;-73.582;2023-04-26T11:58:49;101853.97;;;9.90;46.37
79006;BME280;69202;45.498;-73.582;2023-04-26T12:01:25;101724.44;;;9.15;45.47
79006;BME280;69202;45.498;-73.582;2023-04-26T12:03:53;101857.22;;;10.01;44.91
79006;BME280;69202;45.498;-73.582;2023-04-26T12:06:24;101854.16;;;10.04;44.84
79006;BME280;69202;45.498;-73.582;2023-04-26T12:08:51;101760.78;;;9.53;44.62
79006;BME280;69202;45.498;-73.582;2023-04-26T12:11:17;101769.03;;;9.68;44.41
79006;BME280;69202;45.498;-73.582;2023-04-26T12:13:45;101847.94;;;10.28;43.58
79006;BME280;69202;45.498;-73.582;2023-04-26T12:16:14;101864.00;;;10.38;43.67
79006;BME280;69202;45.498;-73.582;2023-04-26T12:18:41;101830.72;;;10.37;42.80
79006;BME280;69202;45.498;-73.582;2023-04-26T12:21:07;101838.97;;;10.52;42.73
79006;BME280;69202;45.498;-73.582;2023-04-26T12:23:37;101830.03;;;10.44;43.06
79006;BME280;69202;45.498;-73.582;2023-04-26T12:26:03;101769.22;;;10.07;42.83
79006;BME280;69202;45.498;-73.582;2023-04-26T12:28:30;101762.97;;;10.06;42.87
79006;BME280;69202;45.498;-73.582;2023-04-26T12:30:56;101853.00;;;10.56;43.25
79006;BME280;69202;45.498;-73.582;2023-04-26T12:33:22;101846.56;;;10.57;43.64
79006;BME280;69202;45.498;-73.582;2023-04-26T12:35:49;101849.78;;;10.52;43.67
79006;BME280;69202;45.498;-73.582;2023-04-26T12:38:19;101838.28;;;10.50;43.37
79006;BME280;69202;45.498;-73.582;2023-04-26T12:40:45;101771.56;;;10.18;43.51
79006;BME280;69202;45.498;-73.582;2023-04-26T12:43:11;101823.38;;;10.62;43.29
79006;BME280;69202;45.498;-73.582;2023-04-26T12:45:37;101842.13;;;10.80;42.22
79006;BME280;69202;45.498;-73.582;2023-04-26T12:48:04;101763.47;;;10.34;41.82